Time;durP1;ratioP1;P1;durP2;ratioP2;P2;SDS_P1;SDS_P2;PMS_P1;PMS_P2;Temp;Humidity;BMP_temperature;BMP_pressure;BME280_temperature;BME280_humidity;BME280_pressure;Samples;Min_cycle;Max_cycle;Signal;HPM_P1;HPM_P2
2024/02/05 00:01:10;;;;;;;4.78;1.45;;;7.00;99.90;;;;;;5012721;28;20037;-62
2024/02/05 00:03:42;;;;;;;3.58;1.58;;;7.10;99.90;;;;;;5031336;28;20049;-63
2024/02/05 00:06:14;;;;;;;3.00;1.27;;;7.10;99.90;;;;;;5030554;28;20513;-63
2024/02/05 00:08:46;;;;;;;2.47;1.38;;;7.10;99.90;;;;;;5007095;28;20046;-63
2024/02/05 00:11:18;;;;;;;3.03;1.40;;;7.10;99.90;;;;;;5029626;28;20049;-63
2024/02/05 00:13:50;;;;;;;3.28;1.30;;;7.10;99.90;;;;;;5013057;28;20099;-63
2024/02/05 00:16:22;;;;;;;6.60;1.30;;;7.10;99.90;;;;;;4999464;28;20056;-63
2024/02/05 00:18:54;;;;;;;2.35;1.48;;;7.10;99.90;;;;;;5031234;28;20099;-63
2024/02/05 00:21:25;;;;;;;2.60;1.75;;;7.10;99.90;;;;;;5031924;28;20498;-63
2024/02/05 00:23:57;;;;;;;4.20;1.40;;;7.20;99.90;;;;;;5030373;28;20081;-63
2024/02/05 00:26:29;;;;;;;2.40;1.23;;;7.20;99.90;;;;;;5030836;28;20041;-63
2024/02/05 00:29:01;;;;;;;3.17;1.42;;;7.10;99.90;;;;;;5029009;28;20053;-63
2024/02/05 00:31:33;;;;;;;2.08;1.38;;;7.10;99.90;;;;;;5031017;28;20050;-63
2024/02/05 00:34:05;;;;;;;1.92;1.15;;;7.10;99.90;;;;;;5030842;28;20394;-62
2024/02/05 00:36:37;;;;;;;3.15;1.63;;;7.10;99.90;;;;;;5031097;28;20073;-63
2024/02/05 00:39:12;;;;;;;3.47;1.75;;;7.10;99.90;;;;;;5012983;28;20417;-62
2024/02/05 00:41:44;;;;;;;2.55;1.70;;;7.10;99.90;;;;;;5013113;28;20033;-63
2024/02/05 00:44:16;;;;;;;5.07;1.48;;;7.10;99.90;;;;;;5009908;28;20049;-63
2024/02/05 00:46:48;;;;;;;2.88;1.25;;;7.00;99.90;;;;;;5030438;28;20046;-63
2024/02/05 00:49:20;;;;;;;4.20;1.52;;;7.00;99.90;;;;;;5014055;28;20072;-62
2024/02/05 00:51:52;;;;;;;3.08;1.50;;;7.00;99.90;;;;;;5030250;28;20080;-64
2024/02/05 00:54:24;;;;;;;5.45;1.50;;;7.00;99.90;;;;;;5011138;28;20038;-63
2024/02/05 00:56:56;;;;;;;2.83;1.20;;;7.00;99.90;;;;;;5013037;28;20045;-63
2024/02/05 00:59:27;;;;;;;3.47;1.45;;;7.00;99.90;;;;;;5001317;28;20042;-63
2024/02/05 01:02:00;;;;;;;2.67;1.52;;;7.00;99.90;;;;;;5030691;28;20041;-63
2024/02/05 01:04:32;;;;;;;4.72;1.80;;;7.00;99.90;;;;;;5012796;28;20541;-63
2024/02/05 01:07:04;;;;;;;3.28;1.75;;;6.90;99.90;;;;;;5013050;28;20041;-63
2024/02/05 01:09:36;;;;;;;3.03;1.40;;;6.90;99.90;;;;;;5013743;28;20124;-63
2024/02/05 01:12:09;;;;;;;1.77;1.42;;;6.90;99.90;;;;;;5013767;28;20060;-63
2024/02/05 01:14:40;;;;;;;3.08;1.60;;;6.90;99.90;;;;;;5027384;28;20682;-62
2024/02/05 01:17:12;;;;;;;2.47;1.20;;;6.90;99.90;;;;;;5013785;28;20037;-63
2024/02/05 01:19:39;;;;;;;5.85;1.80;;;6.90;99.90;;;;;;4994434;28;20128;-63
2024/02/05 01:22:11;;;;;;;6.38;2.78;;;6.90;99.90;;;;;;5009284;28;20050;-63
2024/02/05 01:24:43;;;;;;;3.25;1.30;;;6.90;99.90;;;;;;5030303;28;20052;-63
2024/02/05 01:27:15;;;;;;;2.55;1.20;;;7.00;99.90;;;;;;5028542;28;20053;-63
2024/02/05 01:29:47;;;;;;;4.95;1.35;;;7.00;99.90;;;;;;5013876;28;20045;-63
2024/02/05 01:32:19;;;;;;;2.67;1.10;;;7.00;99.90;;;;;;5030414;28;20080;-63
2024/02/05 01:34:50;;;;;;;2.80;1.45;;;7.00;99.90;;;;;;5029705;28;20128;-63
2024/02/05 01:37:22;;;;;;;4.90;1.55;;;7.00;99.90;;;;;;5016763;28;20056;-63
2024/02/05 01:39:54;;;;;;;1.73;1.30;;;7.00;99.90;;;;;;5016376;28;20476;-63
2024/02/05 01:42:26;;;;;;;2.80;1.17;;;7.10;99.90;;;;;;5034184;28;20125;-63
2024/02/05 01:44:58;;;;;;;4.70;1.27;;;7.10;99.90;;;;;;5034156;28;20512;-63
2024/02/05 01:47:25;;;;;;;2.13;1.38;;;7.10;99.90;;;;;;5033959;28;20041;-63
2024/02/05 01:49:58;;;;;;;4.63;1.50;;;7.10;99.90;;;;;;5033904;28;20045;-63
2024/02/05 01:52:30;;;;;;;2.58;1.25;;;7.10;99.90;;;;;;5032990;28;20048;-63
2024/02/05 01:55:05;;;;;;;2.67;1.40;;;7.10;99.90;;;;;;5007559;28;20049;-63
2024/02/05 01:57:37;;;;;;;3.58;1.73;;;7.10;99.90;;;;;;5032354;28;20140;-63
2024/02/05 02:00:11;;;;;;;3.72;1.42;;;7.10;99.90;;;;;;5011989;28;20045;-63
2024/02/05 02:02:43;;;;;;;3.95;1.60;;;7.10;99.90;;;;;;5031288;28;20596;-63
2024/02/05 02:05:17;;;;;;;3.37;1.40;;;7.10;99.90;;;;;;5032682;28;20045;-63
2024/02/05 02:07:50;;;;;;;2.17;1.50;;;7.00;99.90;;;;;;5027945;28;20051;-63
2024/02/05 02:10:22;;;;;;;3.28;1.30;;;7.00;99.90;;;;;;5032522;28;20047;-63
2024/02/05 02:12:54;;;;;;;1.80;1.20;;;6.90;99.90;;;;;;5029094;28;20055;-63
2024/02/05 02:15:26;;;;;;;2.30;1.40;;;6.80;99.90;;;;;;5014826;28;20148;-63
2024/02/05 02:18:02;;;;;;;4.55;1.95;;;6.80;99.90;;;;;;5030154;28;20045;-63
2024/02/05 02:20:42;;;;;;;4.50;1.67;;;6.80;99.90;;;;;;5032857;28;20135;-63
2024/02/05 02:23:24;;;;;;;2.35;1.30;;;6.80;99.90;;;;;;5031414;28;20049;-63
2024/02/05 02:25:58;;;;;;;2.30;1.55;;;6.70;99.90;;;;;;5032344;28;20049;-63
2024/02/05 02:28:30;;;;;;;2.28;1.33;;;6.70;99.90;;;;;;5030052;28;20055;-63
2024/02/05 02:31:02;;;;;;;4.55;1.83;;;6.70;99.90;;;;;;5015805;28;20055;-63
2024/02/05 02:33:40;;;;;;;4.57;1.42;;;6.70;99.90;;;;;;5032568;28;20049;-63
2024/02/05 02:36:19;;;;;;;4.82;1.55;;;6.70;99.90;;;;;;5031415;28;20487;-63
2024/02/05 02:39:11;;;;;;;3.80;1.50;;;6.60;99.90;;;;;;5013055;28;20144;-63
2024/02/05 02:41:43;;;;;;;7.60;1.80;;;6.60;99.90;;;;;;5031217;28;20539;-63
2024/02/05 02:44:17;;;;;;;4.15;1.70;;;6.60;99.90;;;;;;5030464;28;20049;-63
2024/02/05 02:46:51;;;;;;;3.75;1.80;;;6.60;99.90;;;;;;5004890;28;20159;-63
2024/02/05 02:49:23;;;;;;;2.88;1.50;;;6.70;99.90;;;;;;5030990;28;20080;-63
2024/02/05 02:51:50;;;;;;;3.88;1.40;;;6.60;99.90;;;;;;5032162;28;20041;-63
2024/02/05 02:54:22;;;;;;;5.03;1.83;;;6.60;99.90;;;;;;5011481;28;20048;-63
2024/02/05 02:56:54;;;;;;;4.82;1.85;;;6.50;99.90;;;;;;5015457;28;20045;-63
2024/02/05 02:59:25;;;;;;;3.78;1.80;;;6.50;99.90;;;;;;5032109;28;20065;-63
2024/02/05 03:01:58;;;;;;;3.60;1.73;;;6.40;99.90;;;;;;5032317;28;20679;-63
2024/02/05 03:04:30;;;;;;;3.20;1.50;;;6.40;99.90;;;;;;5031924;28;20141;-63
2024/02/05 03:07:02;;;;;;;4.63;2.03;;;6.30;99.90;;;;;;5029871;28;20140;-63
2024/02/05 03:09:33;;;;;;;2.85;1.52;;;6.20;99.90;;;;;;5030825;28;20057;-63
2024/02/05 03:12:05;;;;;;;6.82;2.10;;;6.20;99.90;;;;;;5030652;28;20049;-63
2024/02/05 03:14:37;;;;;;;4.05;1.63;;;6.20;99.90;;;;;;5031375;28;20052;-63
2024/02/05 03:17:09;;;;;;;7.43;1.98;;;6.20;99.90;;;;;;5031569;28;20045;-63
2024/02/05 03:19:41;;;;;;;3.50;1.63;;;6.10;99.90;;;;;;5029859;28;20048;-63
2024/02/05 03:22:12;;;;;;;5.15;2.13;;;6.10;99.90;;;;;;5031670;28;20495;-63
2024/02/05 03:24:44;;;;;;;4.72;2.30;;;6.10;99.90;;;;;;5028631;28;20057;-63
2024/02/05 03:27:16;;;;;;;8.30;2.78;;;6.00;99.90;;;;;;5028813;28;20088;-63
2024/02/05 03:29:48;;;;;;;3.65;1.50;;;6.00;99.90;;;;;;5009813;28;20057;-63
2024/02/05 03:32:20;;;;;;;4.72;1.40;;;6.00;99.90;;;;;;5031505;28;20517;-63
2024/02/05 03:34:51;;;;;;;8.85;2.35;;;6.00;99.90;;;;;;5031279;28;20493;-63
2024/02/05 03:37:23;;;;;;;2.72;1.67;;;5.90;99.90;;;;;;5013653;28;20049;-63
2024/02/05 03:39:51;;;;;;;6.90;2.05;;;5.90;99.90;;;;;;5005432;28;20041;-63
2024/02/05 03:42:23;;;;;;;4.38;2.13;;;5.90;99.90;;;;;;5004656;28;20040;-63
2024/02/05 03:44:54;;;;;;;7.70;2.22;;;5.80;99.90;;;;;;5031024;28;20145;-63
2024/02/05 03:47:26;;;;;;;5.97;2.28;;;5.70;99.90;;;;;;5030801;28;20131;-63
2024/02/05 03:49:58;;;;;;;5.85;2.50;;;5.70;99.90;;;;;;5013550;28;20456;-63
2024/02/05 03:52:31;;;;;;;8.13;2.88;;;5.70;99.90;;;;;;5031271;28;20045;-63
2024/02/05 03:55:05;;;;;;;5.97;2.38;;;5.60;99.90;;;;;;5014020;28;20045;-63
2024/02/05 03:57:42;;;;;;;6.70;2.55;;;5.60;99.90;;;;;;5010364;28;20060;-63
2024/02/05 04:00:20;;;;;;;5.90;2.33;;;5.60;99.90;;;;;;5029242;28;20037;-63
2024/02/05 04:02:52;;;;;;;8.20;2.75;;;5.50;99.90;;;;;;5030895;28;20049;-63
2024/02/05 04:05:28;;;;;;;5.15;1.90;;;5.50;99.90;;;;;;5030898;28;20076;-63
2024/02/05 04:08:00;;;;;;;6.20;2.03;;;5.50;99.90;;;;;;5030383;28;20135;-63
2024/02/05 04:10:32;;;;;;;5.38;2.28;;;5.50;99.90;;;;;;5030921;28;20065;-63
2024/02/05 04:13:04;;;;;;;5.20;2.25;;;5.50;99.90;;;;;;5030483;28;20516;-63
2024/02/05 04:15:36;;;;;;;2.97;1.85;;;5.60;99.90;;;;;;5013541;28;20072;-63
2024/02/05 04:18:08;;;;;;;4.90;1.65;;;5.50;99.90;;;;;;5031409;28;20045;-63
2024/02/05 04:20:40;;;;;;;5.45;1.70;;;5.50;99.90;;;;;;5031129;28;20471;-63
2024/02/05 04:23:12;;;;;;;4.25;1.80;;;5.50;99.90;;;;;;5028072;28;20056;-63
2024/02/05 04:25:44;;;;;;;3.25;1.92;;;5.40;99.90;;;;;;5031091;28;20880;-63
2024/02/05 04:28:15;;;;;;;4.32;1.70;;;5.30;99.90;;;;;;5013170;28;20049;-63
2024/02/05 04:30:47;;;;;;;3.47;2.10;;;5.30;99.90;;;;;;5030281;28;20046;-63
2024/02/05 04:33:19;;;;;;;3.60;2.15;;;5.30;99.90;;;;;;5026804;28;20131;-62
2024/02/05 04:35:51;;;;;;;4.05;1.70;;;5.30;99.90;;;;;;5030171;28;20053;-63
2024/02/05 04:38:18;;;;;;;2.97;1.95;;;5.30;99.90;;;;;;5030904;28;20045;-63
2024/02/05 04:40:50;;;;;;;3.17;1.83;;;5.20;99.90;;;;;;5029960;28;20080;-63
2024/02/05 04:43:16;;;;;;;3.83;2.50;;;5.20;99.90;;;;;;5013084;28;20067;-62
2024/02/05 04:45:48;;;;;;;3.95;1.88;;;5.20;99.90;;;;;;5013329;28;20050;-63
2024/02/05 04:48:21;;;;;;;3.70;2.13;;;5.10;99.90;;;;;;5031148;28;20512;-63
2024/02/05 04:50:53;;;;;;;3.95;2.00;;;5.10;99.90;;;;;;5027785;28;20395;-63
2024/02/05 04:53:20;;;;;;;4.38;2.20;;;5.00;99.90;;;;;;5029168;28;20045;-63
2024/02/05 04:55:51;;;;;;;4.32;2.40;;;5.00;99.90;;;;;;5006729;28;20065;-63
2024/02/05 04:58:23;;;;;;;4.00;2.70;;;5.00;99.90;;;;;;5017692;28;20042;-62
2024/02/05 05:00:55;;;;;;;4.50;2.30;;;5.00;99.90;;;;;;5029414;28;20041;-64
2024/02/05 05:03:27;;;;;;;3.47;2.28;;;5.00;99.90;;;;;;5013687;28;20283;-62
2024/02/05 05:05:59;;;;;;;5.18;2.13;;;5.00;99.90;;;;;;5029925;28;20061;-63
2024/02/05 05:08:31;;;;;;;3.35;1.80;;;5.00;99.90;;;;;;5029416;28;20140;-63
2024/02/05 05:11:03;;;;;;;6.20;2.40;;;5.00;99.90;;;;;;5030850;28;20045;-63
2024/02/05 05:13:30;;;;;;;3.00;1.83;;;5.00;99.90;;;;;;5007957;28;20494;-63
2024/02/05 05:16:03;;;;;;;4.45;1.63;;;5.00;99.90;;;;;;5033915;28;20525;-63
2024/02/05 05:18:34;;;;;;;2.65;2.00;;;4.90;99.90;;;;;;5033938;28;20044;-63
2024/02/05 05:21:06;;;;;;;5.20;2.42;;;4.90;99.90;;;;;;5011242;28;20080;-63
2024/02/05 05:23:33;;;;;;;4.85;2.38;;;4.90;99.90;;;;;;5033864;28;20137;-63
2024/02/05 05:26:00;;;;;;;3.83;2.35;;;4.90;99.90;;;;;;5033670;28;20136;-63
2024/02/05 05:28:33;;;;;;;4.55;2.50;;;4.80;99.90;;;;;;5032111;28;20034;-63
2024/02/05 05:31:05;;;;;;;3.22;2.20;;;4.80;99.90;;;;;;5034563;28;20042;-63
2024/02/05 05:33:37;;;;;;;3.17;2.13;;;4.80;99.90;;;;;;5033977;28;20845;-62
2024/02/05 05:36:09;;;;;;;3.42;2.15;;;4.70;99.90;;;;;;5031561;28;20052;-63
2024/02/05 05:38:41;;;;;;;4.95;3.10;;;4.70;99.90;;;;;;5014056;28;20607;-64
2024/02/05 05:41:07;;;;;;;3.72;2.97;;;4.60;99.90;;;;;;5032314;28;20033;-64
2024/02/05 05:43:39;;;;;;;3.92;2.45;;;4.50;99.90;;;;;;5031834;28;20042;-63
2024/02/05 05:46:11;;;;;;;6.30;2.58;;;4.50;99.90;;;;;;5015838;28;20053;-63
2024/02/05 05:48:38;;;;;;;9.18;2.75;;;4.60;99.90;;;;;;5031295;28;20046;-63
2024/02/05 05:51:10;;;;;;;6.45;2.60;;;4.60;99.90;;;;;;5011757;28;20717;-62
2024/02/05 05:53:42;;;;;;;5.18;3.45;;;4.60;99.90;;;;;;5006776;28;20045;-63
2024/02/05 05:56:14;;;;;;;6.10;3.10;;;4.70;99.90;;;;;;5006234;28;20140;-63
2024/02/05 05:58:45;;;;;;;4.47;2.70;;;4.70;99.90;;;;;;5031262;28;20413;-63
2024/02/05 06:01:17;;;;;;;5.93;3.10;;;4.80;99.90;;;;;;4998510;28;20049;-63
2024/02/05 06:03:49;;;;;;;8.15;3.40;;;4.80;99.90;;;;;;5004254;28;20073;-63
2024/02/05 06:06:21;;;;;;;7.32;2.80;;;4.80;99.90;;;;;;5033898;28;20041;-63
2024/02/05 06:08:53;;;;;;;7.38;2.90;;;4.80;99.90;;;;;;5000029;28;20041;-63
2024/02/05 06:11:24;;;;;;;7.28;3.20;;;4.80;99.90;;;;;;5015653;28;20047;-63
2024/02/05 06:13:57;;;;;;;6.35;3.00;;;4.80;99.90;;;;;;5016201;28;20037;-63
2024/02/05 06:16:28;;;;;;;6.80;3.50;;;4.80;99.90;;;;;;5009807;28;20068;-63
2024/02/05 06:19:00;;;;;;;5.25;2.65;;;4.80;99.90;;;;;;5027803;28;20121;-63
2024/02/05 06:21:33;;;;;;;5.78;3.15;;;4.80;99.90;;;;;;5011951;28;20052;-63
2024/02/05 06:24:05;;;;;;;8.00;3.10;;;4.90;99.90;;;;;;5026937;28;20046;-62
2024/02/05 06:26:36;;;;;;;6.18;3.22;;;4.90;99.90;;;;;;5029175;28;20049;-63
2024/02/05 06:29:08;;;;;;;6.82;3.80;;;4.90;99.90;;;;;;5027428;28;20064;-62
2024/02/05 06:31:40;;;;;;;7.15;3.28;;;4.90;99.90;;;;;;5006480;28;20522;-63
2024/02/05 06:34:12;;;;;;;4.65;3.15;;;4.80;99.90;;;;;;5021998;28;20056;-63
2024/02/05 06:36:39;;;;;;;5.50;3.08;;;4.80;99.90;;;;;;5031166;28;20095;-63
2024/02/05 06:39:11;;;;;;;4.47;3.08;;;4.80;99.90;;;;;;5029705;28;20041;-63
2024/02/05 06:41:43;;;;;;;7.25;4.25;;;4.80;99.90;;;;;;5011659;28;20044;-63
2024/02/05 06:44:10;;;;;;;5.47;3.03;;;4.80;99.90;;;;;;5029845;28;20049;-63
2024/02/05 06:46:42;;;;;;;8.23;3.67;;;4.80;99.90;;;;;;5012678;28;20416;-63
2024/02/05 06:49:09;;;;;;;8.57;3.30;;;4.80;99.90;;;;;;5008750;28;20034;-63
2024/02/05 06:51:41;;;;;;;5.53;3.13;;;4.80;99.90;;;;;;5029715;28;20049;-63
2024/02/05 06:54:13;;;;;;;4.07;2.72;;;4.80;99.90;;;;;;5029067;28;20464;-63
2024/02/05 06:56:46;;;;;;;3.55;2.60;;;4.90;99.90;;;;;;5029266;28;20029;-63
2024/02/05 06:59:14;;;;;;;4.55;2.50;;;4.90;99.90;;;;;;5013099;28;20124;-63
2024/02/05 07:01:46;;;;;;;3.60;2.60;;;4.90;99.90;;;;;;5012238;28;20095;-63
2024/02/05 07:04:20;;;;;;;6.25;3.17;;;4.90;99.90;;;;;;5029195;28;20049;-63
2024/02/05 07:06:51;;;;;;;3.95;2.60;;;4.90;99.90;;;;;;5009686;28;20049;-63
2024/02/05 07:09:25;;;;;;;6.65;2.90;;;4.90;99.90;;;;;;5010146;28;20049;-63
2024/02/05 07:11:57;;;;;;;4.53;2.55;;;4.90;99.90;;;;;;5032475;28;20049;-63
2024/02/05 07:14:23;;;;;;;4.13;2.63;;;4.90;99.90;;;;;;5028294;28;20044;-63
2024/02/05 07:16:50;;;;;;;4.30;2.13;;;4.90;99.90;;;;;;5030708;28;20128;-63
2024/02/05 07:19:22;;;;;;;3.80;2.75;;;4.90;99.90;;;;;;5030643;28;20041;-63
2024/02/05 07:21:54;;;;;;;4.47;2.30;;;4.90;99.90;;;;;;5027866;28;20128;-63
2024/02/05 07:24:26;;;;;;;5.03;2.78;;;4.90;99.90;;;;;;5028941;28;20053;-63
2024/02/05 07:26:53;;;;;;;2.78;1.98;;;4.90;99.90;;;;;;5032597;28;20038;-63
2024/02/05 07:29:25;;;;;;;4.13;2.38;;;4.90;99.90;;;;;;5033646;28;20041;-63
2024/02/05 07:31:56;;;;;;;4.25;2.45;;;4.90;99.90;;;;;;5012427;28;20049;-63
2024/02/05 07:34:28;;;;;;;6.03;2.45;;;4.90;99.90;;;;;;5011506;28;20052;-63
2024/02/05 07:36:55;;;;;;;3.90;1.77;;;4.90;99.90;;;;;;5031833;28;20140;-63
2024/02/05 07:39:27;;;;;;;4.63;2.47;;;4.90;99.90;;;;;;5012915;28;20084;-63
2024/02/05 07:41:59;;;;;;;4.45;2.08;;;4.90;99.90;;;;;;5028814;28;20061;-63
2024/02/05 07:44:31;;;;;;;3.97;2.30;;;4.90;99.90;;;;;;5028769;28;20037;-63
2024/02/05 07:47:03;;;;;;;4.70;2.72;;;4.90;99.90;;;;;;5030609;28;20132;-63
2024/02/05 07:49:35;;;;;;;4.18;2.38;;;4.90;99.90;;;;;;5029875;28;20045;-63
2024/02/05 07:52:07;;;;;;;2.90;2.20;;;4.90;99.90;;;;;;5030176;28;20048;-63
2024/02/05 07:54:39;;;;;;;3.22;1.95;;;4.90;99.90;;;;;;5029035;28;20123;-63
2024/02/05 07:57:11;;;;;;;4.50;2.20;;;4.90;99.90;;;;;;5028010;28;20433;-63
2024/02/05 07:59:43;;;;;;;6.65;2.17;;;5.00;99.90;;;;;;5029241;28;20057;-63
2024/02/05 08:02:14;;;;;;;5.32;2.35;;;5.00;99.90;;;;;;5012221;28;20129;-63
2024/02/05 08:04:46;;;;;;;4.25;2.30;;;5.00;99.90;;;;;;5028406;28;20048;-63
2024/02/05 08:07:18;;;;;;;7.63;2.28;;;5.00;99.90;;;;;;5028908;28;20045;-63
2024/02/05 08:09:51;;;;;;;4.43;2.15;;;5.10;99.90;;;;;;5029725;28;20054;-63
2024/02/05 08:12:23;;;;;;;3.70;2.25;;;5.20;99.90;;;;;;5030259;28;20051;-63
2024/02/05 08:14:54;;;;;;;5.00;2.72;;;5.20;99.90;;;;;;5014480;28;20497;-66
2024/02/05 08:17:26;;;;;;;7.25;3.47;;;5.20;99.90;;;;;;5032341;28;20140;-63
2024/02/05 08:19:58;;;;;;;3.05;1.77;;;5.30;99.90;;;;;;5027177;28;20044;-63
2024/02/05 08:22:30;;;;;;;2.90;1.95;;;5.30;99.90;;;;;;5029093;28;20033;-63
2024/02/05 08:25:02;;;;;;;3.50;2.30;;;5.30;99.90;;;;;;5012318;28;20111;-63
2024/02/05 08:27:34;;;;;;;2.72;2.20;;;5.40;99.90;;;;;;5010916;28;20057;-63
2024/02/05 08:30:07;;;;;;;2.45;1.80;;;5.30;99.90;;;;;;5029709;28;20041;-63
2024/02/05 08:32:40;;;;;;;4.50;2.55;;;5.40;99.90;;;;;;5028396;28;20056;-63
2024/02/05 08:35:12;;;;;;;2.33;1.83;;;5.40;99.90;;;;;;5029043;28;20068;-63
2024/02/05 08:37:44;;;;;;;5.38;2.13;;;5.40;99.90;;;;;;5008972;28;20041;-63
2024/02/05 08:40:15;;;;;;;4.07;2.28;;;5.40;99.90;;;;;;5007603;28;20095;-63
2024/02/05 08:42:47;;;;;;;4.32;2.45;;;5.30;99.90;;;;;;5030302;28;20047;-63
2024/02/05 08:45:19;;;;;;;4.47;2.50;;;5.30;99.90;;;;;;5027894;28;20049;-63
2024/02/05 08:47:52;;;;;;;5.32;2.95;;;5.30;99.90;;;;;;5030012;28;20049;-63
2024/02/05 08:50:31;;;;;;;4.95;2.97;;;5.40;99.90;;;;;;5030437;28;20038;-63
2024/02/05 08:52:58;;;;;;;5.28;2.63;;;5.40;99.90;;;;;;5029483;28;20045;-63
2024/02/05 08:55:30;;;;;;;5.18;2.95;;;5.40;99.90;;;;;;5028745;28;20038;-63
2024/02/05 08:58:02;;;;;;;4.13;2.75;;;5.40;99.90;;;;;;5029172;28;20060;-63
2024/02/05 09:00:29;;;;;;;5.10;3.03;;;5.50;99.90;;;;;;5013042;28;20044;-63
2024/02/05 09:03:02;;;;;;;5.95;3.45;;;5.50;99.90;;;;;;5030233;28;20047;-63
2024/02/05 09:05:35;;;;;;;7.10;3.55;;;5.50;99.90;;;;;;5029988;28;20055;-63
2024/02/05 09:08:01;;;;;;;4.72;3.28;;;5.60;99.90;;;;;;5028930;28;20037;-63
2024/02/05 09:10:28;;;;;;;6.63;3.70;;;5.70;99.90;;;;;;5026826;28;20569;-63
2024/02/05 09:13:00;;;;;;;4.63;2.50;;;5.80;99.90;;;;;;5030728;28;20129;-63
2024/02/05 09:15:31;;;;;;;7.97;3.30;;;5.80;99.90;;;;;;5030288;28;20046;-63
2024/02/05 09:18:03;;;;;;;6.50;2.90;;;5.90;99.90;;;;;;5028506;28;20087;-63
2024/02/05 09:20:38;;;;;;;5.45;2.83;;;5.90;99.90;;;;;;5030631;28;20567;-63
2024/02/05 09:23:10;;;;;;;4.25;2.88;;;5.90;99.90;;;;;;5028395;28;20050;-63
2024/02/05 09:25:42;;;;;;;5.07;2.40;;;6.00;99.90;;;;;;5013633;28;20041;-63
2024/02/05 09:28:14;;;;;;;6.68;3.03;;;6.10;99.90;;;;;;5030428;28;20057;-63
2024/02/05 09:30:46;;;;;;;6.95;3.15;;;6.10;99.90;;;;;;5010218;28;20130;-63
2024/02/05 09:33:18;;;;;;;11.85;4.22;;;6.20;99.90;;;;;;4995001;28;20046;-63
2024/02/05 09:35:50;;;;;;;6.88;2.88;;;6.20;99.90;;;;;;5025447;28;20048;-62
2024/02/05 09:38:17;;;;;;;6.15;2.78;;;6.30;99.90;;;;;;5011071;28;20046;-62
2024/02/05 09:41:06;;;;;;;6.60;2.85;;;6.30;99.90;;;;;;5027228;28;20065;-62
2024/02/05 09:43:39;;;;;;;4.93;2.45;;;6.30;99.90;;;;;;5028596;28;20065;-62
2024/02/05 09:46:15;;;;;;;6.10;3.05;;;6.40;99.90;;;;;;5027358;28;20049;-62
2024/02/05 09:48:49;;;;;;;6.63;3.42;;;6.40;99.90;;;;;;5029585;28;20059;-62
2024/02/05 09:51:22;;;;;;;7.68;2.67;;;6.40;99.90;;;;;;5029123;28;20041;-63
2024/02/05 09:53:56;;;;;;;6.30;2.97;;;6.50;99.90;;;;;;5026285;28;20041;-62
2024/02/05 09:56:30;;;;;;;4.47;2.70;;;6.50;99.90;;;;;;5029805;28;20069;-62
2024/02/05 09:58:57;;;;;;;9.77;3.47;;;6.50;99.90;;;;;;5031544;28;20128;-62
2024/02/05 10:01:31;;;;;;;7.32;3.20;;;6.60;99.90;;;;;;5032157;28;20048;-63
2024/02/05 10:04:07;;;;;;;9.00;3.47;;;6.60;99.90;;;;;;5032044;28;20049;-63
2024/02/05 10:06:42;;;;;;;6.15;2.90;;;6.70;99.90;;;;;;5011003;28;20045;-62
2024/02/05 10:09:14;;;;;;;11.80;3.30;;;6.70;99.90;;;;;;5029486;28;20053;-63
2024/02/05 10:11:50;;;;;;;7.68;3.25;;;6.70;99.90;;;;;;5030043;28;20514;-63
2024/02/05 10:14:25;;;;;;;8.18;3.25;;;6.70;99.90;;;;;;5027552;28;20049;-63
2024/02/05 10:16:57;;;;;;;7.60;3.15;;;6.80;99.90;;;;;;5029472;28;20041;-63
2024/02/05 10:19:29;;;;;;;6.85;2.80;;;6.80;99.90;;;;;;5032612;28;20061;-63
2024/02/05 10:22:01;;;;;;;5.30;2.97;;;6.90;99.90;;;;;;5014819;28;20056;-63
2024/02/05 10:24:38;;;;;;;4.82;2.75;;;6.90;99.90;;;;;;5029625;28;20458;-63
2024/02/05 10:27:16;;;;;;;10.85;3.40;;;6.90;99.90;;;;;;5030246;28;20059;-63
2024/02/05 10:29:58;;;;;;;3.58;2.47;;;6.90;99.90;;;;;;5013716;28;20521;-63
2024/02/05 10:32:31;;;;;;;7.03;2.55;;;7.00;99.90;;;;;;5031973;28;20049;-62
2024/02/05 10:35:03;;;;;;;4.33;2.70;;;7.00;99.90;;;;;;5012117;28;20042;-63
2024/02/05 10:37:35;;;;;;;8.25;2.75;;;7.10;99.90;;;;;;5031375;28;20506;-63
2024/02/05 10:40:10;;;;;;;9.70;3.25;;;7.20;99.90;;;;;;5031357;28;20069;-62
2024/02/05 10:42:42;;;;;;;7.07;2.75;;;7.30;99.90;;;;;;5014367;28;20099;-63
2024/02/05 10:45:14;;;;;;;8.13;3.15;;;7.40;99.90;;;;;;5013013;28;20568;-63
2024/02/05 10:47:46;;;;;;;5.90;2.85;;;7.50;99.90;;;;;;5031984;28;20077;-63
2024/02/05 10:50:18;;;;;;;10.32;2.65;;;7.50;99.90;;;;;;5029261;28;20068;-63
2024/02/05 10:52:51;;;;;;;6.45;2.15;;;7.60;99.90;;;;;;5031815;28;20386;-63
2024/02/05 10:55:23;;;;;;;7.13;2.83;;;7.60;99.90;;;;;;5030597;28;20046;-63
2024/02/05 10:58:02;;;;;;;10.52;2.70;;;7.70;99.90;;;;;;5010951;28;20060;-63
2024/02/05 11:00:34;;;;;;;7.63;3.17;;;7.80;99.90;;;;;;5026702;28;20083;-63
2024/02/05 11:03:14;;;;;;;6.07;2.45;;;7.90;99.90;;;;;;5032608;28;20691;-63
2024/02/05 11:05:53;;;;;;;10.85;3.25;;;7.90;99.90;;;;;;5031727;28;20497;-63
2024/02/05 11:08:29;;;;;;;7.00;2.50;;;8.00;99.90;;;;;;5029395;28;20037;-63
2024/02/05 11:10:59;;;;;;;6.75;2.60;;;8.00;99.90;;;;;;5029784;28;20069;-63
2024/02/05 11:13:34;;;;;;;5.30;3.10;;;8.10;99.90;;;;;;5031254;28;20049;-63
2024/02/05 11:16:02;;;;;;;9.57;2.58;;;8.20;99.90;;;;;;5032658;28;20183;-63
2024/02/05 11:18:57;;;;;;;7.53;2.60;;;8.30;99.90;;;;;;5029256;28;20033;-63
2024/02/05 11:21:33;;;;;;;5.47;2.10;;;8.40;99.90;;;;;;5032458;28;20038;-63
2024/02/05 11:24:10;;;;;;;5.65;2.17;;;8.40;99.90;;;;;;5023107;28;20081;-63
2024/02/05 11:26:42;;;;;;;;;;;8.50;99.90;;;;;;5032109;28;20042;-63
2024/02/05 11:29:24;;;;;;;5.50;2.10;;;8.50;99.90;;;;;;5014029;28;20300;-63
2024/02/05 11:31:59;;;;;;;7.45;3.22;;;8.60;99.90;;;;;;5003270;28;20060;-63
2024/02/05 11:34:40;;;;;;;5.38;2.35;;;8.70;99.90;;;;;;5012781;28;20041;-63
2024/02/05 11:37:20;;;;;;;8.50;2.05;;;8.80;99.90;;;;;;5030315;28;20065;-63
2024/02/05 11:39:54;;;;;;;9.35;2.72;;;8.90;99.90;;;;;;5029532;28;20045;-63
2024/02/05 11:42:27;;;;;;;5.78;1.63;;;8.80;99.90;;;;;;5031523;28;20540;-63
2024/02/05 11:45:02;;;;;;;6.53;2.28;;;9.00;99.90;;;;;;5013556;28;20041;-63
2024/02/05 11:47:34;;;;;;;4.22;1.83;;;9.00;99.90;;;;;;5031804;28;20049;-63
2024/02/05 11:50:07;;;;;;;6.10;2.20;;;9.10;99.90;;;;;;5031854;28;20045;-63
2024/02/05 11:52:38;;;;;;;4.28;2.17;;;9.20;99.90;;;;;;5010001;28;20077;-63
2024/02/05 11:55:16;;;;;;;5.30;2.10;;;9.30;99.90;;;;;;5029279;28;20076;-63
2024/02/05 11:57:45;;;;;;;9.00;2.40;;;9.30;99.90;;;;;;5031591;28;20045;-63
2024/02/05 12:00:18;;;;;;;8.35;3.25;;;9.30;99.90;;;;;;5011955;28;20100;-63
2024/02/05 12:02:51;;;;;;;9.18;2.47;;;9.40;99.90;;;;;;5029604;28;20056;-63
2024/02/05 12:05:24;;;;;;;7.13;2.60;;;9.40;99.90;;;;;;5030621;28;20046;-63
2024/02/05 12:07:52;;;;;;;6.35;2.80;;;9.40;99.90;;;;;;5014098;28;20216;-63
2024/02/05 12:10:24;;;;;;;6.05;2.05;;;9.40;99.90;;;;;;5028719;28;20056;-63
2024/02/05 12:12:56;;;;;;;4.45;2.00;;;9.50;99.90;;;;;;5031333;28;20053;-63
2024/02/05 12:15:33;;;;;;;6.82;2.20;;;9.50;99.90;;;;;;5031171;28;20049;-63
2024/02/05 12:18:06;;;;;;;6.03;2.35;;;9.50;99.90;;;;;;5031071;28;20124;-63
2024/02/05 12:20:38;;;;;;;8.93;2.80;;;9.50;99.90;;;;;;5030969;28;20108;-63
2024/02/05 12:23:10;;;;;;;6.47;1.73;;;9.60;99.90;;;;;;5012885;28;20051;-63
2024/02/05 12:25:43;;;;;;;10.90;2.35;;;9.70;99.90;;;;;;5029524;28;20065;-63
2024/02/05 12:28:14;;;;;;;4.93;2.05;;;9.70;99.90;;;;;;5030938;28;20409;-63
2024/02/05 12:30:57;;;;;;;6.88;2.28;;;9.80;99.90;;;;;;5029419;28;20132;-63
2024/02/05 12:33:29;;;;;;;5.30;1.95;;;9.90;99.90;;;;;;5027951;28;20077;-63
2024/02/05 12:36:08;;;;;;;7.68;1.90;;;9.90;99.90;;;;;;5030287;28;20378;-63
2024/02/05 12:38:40;;;;;;;5.78;1.88;;;10.00;99.90;;;;;;5030927;28;20055;-63
2024/02/05 12:41:13;;;;;;;3.85;1.77;;;10.10;99.90;;;;;;5030939;28;20045;-63
2024/02/05 12:43:45;;;;;;;9.30;1.70;;;10.10;99.90;;;;;;5029550;28;20034;-63
2024/02/05 12:46:17;;;;;;;5.55;2.60;;;10.20;99.90;;;;;;5030519;28;20072;-63
2024/02/05 12:48:50;;;;;;;7.60;2.22;;;10.20;99.90;;;;;;5029291;28;20517;-63
2024/02/05 12:51:24;;;;;;;4.88;1.58;;;10.40;99.90;;;;;;5005276;28;20498;-63
2024/02/05 12:53:56;;;;;;;;;;;10.50;99.90;;;;;;5029833;28;20072;-63
2024/02/05 12:56:30;;;;;;;5.95;2.00;;;10.60;99.90;;;;;;5026951;28;19927;-63
2024/02/05 12:59:00;;;;;;;7.07;2.55;;;10.60;99.90;;;;;;5030656;28;20048;-63
2024/02/05 13:01:32;;;;;;;10.32;1.83;;;10.70;99.90;;;;;;5027803;28;20497;-63
2024/02/05 13:04:03;;;;;;;5.97;1.88;;;10.80;99.90;;;;;;5004768;28;20063;-63
2024/02/05 13:06:35;;;;;;;7.05;1.52;;;10.90;99.90;;;;;;5030184;28;20045;-63
2024/02/05 13:09:09;;;;;;;5.38;1.40;;;11.00;99.90;;;;;;5030592;28;20081;-63
2024/02/05 13:11:41;;;;;;;6.18;1.55;;;11.00;99.90;;;;;;5030090;28;20076;-63
2024/02/05 13:14:13;;;;;;;3.05;1.15;;;11.00;99.90;;;;;;5030216;28;20055;-63
2024/02/05 13:16:47;;;;;;;8.30;1.77;;;11.00;99.90;;;;;;5028985;28;20053;-63
2024/02/05 13:19:19;;;;;;;4.40;1.92;;;11.10;99.90;;;;;;5024846;28;20120;-63
2024/02/05 13:21:51;;;;;;;3.42;1.40;;;11.10;99.90;;;;;;5008191;28;20141;-63
2024/02/05 13:24:23;;;;;;;5.50;1.58;;;11.10;99.90;;;;;;5027370;28;20038;-63